sensor_id;sensor_type;location;lat;lon;timestamp;P1;durP1;ratioP1;P2;durP2;ratioP2
45206;SDS011;30950;53.086;21.576;2023-07-22T00:01:22;8.80;;;4.75;;
45206;SDS011;30950;53.086;21.576;2023-07-22T00:03:50;6.22;;;4.20;;
45206;SDS011;30950;53.086;21.576;2023-07-22T00:06:17;9.45;;;4.53;;
45206;SDS011;30950;53.086;21.576;2023-07-22T00:08:45;9.35;;;4.40;;
45206;SDS011;30950;53.086;21.576;2023-07-22T00:11:12;6.15;;;4.43;;
45206;SDS011;30950;53.086;21.576;2023-07-22T00:13:40;6.28;;;4.85;;
45206;SDS011;30950;53.086;21.576;2023-07-22T00:16:07;5.60;;;4.68;;
45206;SDS011;30950;53.086;21.576;2023-07-22T00:18:35;6.45;;;4.50;;
45206;SDS011;30950;53.086;21.576;2023-07-22T00:21:03;5.95;;;4.35;;
45206;SDS011;30950;53.086;21.576;2023-07-22T00:23:30;8.05;;;4.75;;
45206;SDS011;30950;53.086;21.576;2023-07-22T00:25:58;7.90;;;4.82;;
45206;SDS011;30950;53.086;21.576;2023-07-22T00:28:25;7.43;;;5.30;;
45206;SDS011;30950;53.086;21.576;2023-07-22T00:30:53;8.30;;;4.57;;
45206;SDS011;30950;53.086;21.576;2023-07-22T00:33:21;5.88;;;5.00;;
45206;SDS011;30950;53.086;21.576;2023-07-22T00:35:48;6.50;;;4.30;;
45206;SDS011;30950;53.086;21.576;2023-07-22T00:38:19;6.07;;;4.80;;
45206;SDS011;30950;53.086;21.576;2023-07-22T00:40:46;5.60;;;4.60;;
45206;SDS011;30950;53.086;21.576;2023-07-22T00:43:14;7.70;;;5.47;;
45206;SDS011;30950;53.086;21.576;2023-07-22T00:45:42;5.85;;;4.85;;
45206;SDS011;30950;53.086;21.576;2023-07-22T00:48:10;7.25;;;5.20;;
45206;SDS011;30950;53.086;21.576;2023-07-22T00:50:39;7.32;;;4.85;;
45206;SDS011;30950;53.086;21.576;2023-07-22T00:53:08;7.93;;;5.18;;
45206;SDS011;30950;53.086;21.576;2023-07-22T00:55:35;8.70;;;5.50;;
45206;SDS011;30950;53.086;21.576;2023-07-22T00:58:06;9.48;;;5.40;;
45206;SDS011;30950;53.086;21.576;2023-07-22T01:00:33;8.13;;;5.18;;
45206;SDS011;30950;53.086;21.576;2023-07-22T01:03:01;9.15;;;5.35;;
45206;SDS011;30950;53.086;21.576;2023-07-22T01:05:34;11.20;;;5.35;;
45206;SDS011;30950;53.086;21.576;2023-07-22T01:08:07;8.93;;;5.68;;
45206;SDS011;30950;53.086;21.576;2023-07-22T01:10:34;7.38;;;5.57;;
45206;SDS011;30950;53.086;21.576;2023-07-22T01:13:02;6.80;;;5.50;;
45206;SDS011;30950;53.086;21.576;2023-07-22T01:15:29;8.98;;;5.75;;
45206;SDS011;30950;53.086;21.576;2023-07-22T01:17:57;7.65;;;5.97;;
45206;SDS011;30950;53.086;21.576;2023-07-22T01:20:29;6.03;;;5.38;;
45206;SDS011;30950;53.086;21.576;2023-07-22T01:22:58;9.07;;;5.35;;
45206;SDS011;30950;53.086;21.576;2023-07-22T01:25:25;8.05;;;6.05;;
45206;SDS011;30950;53.086;21.576;2023-07-22T01:27:56;8.35;;;5.95;;
45206;SDS011;30950;53.086;21.576;2023-07-22T01:30:24;5.97;;;5.05;;
45206;SDS011;30950;53.086;21.576;2023-07-22T01:32:54;7.68;;;5.03;;
45206;SDS011;30950;53.086;21.576;2023-07-22T01:35:22;8.30;;;4.90;;
45206;SDS011;30950;53.086;21.576;2023-07-22T01:37:49;6.93;;;5.43;;
45206;SDS011;30950;53.086;21.576;2023-07-22T01:40:17;7.55;;;5.30;;
45206;SDS011;30950;53.086;21.576;2023-07-22T01:42:45;6.10;;;5.47;;
45206;SDS011;30950;53.086;21.576;2023-07-22T01:45:12;9.15;;;6.10;;
45206;SDS011;30950;53.086;21.576;2023-07-22T01:47:40;6.63;;;5.82;;
45206;SDS011;30950;53.086;21.576;2023-07-22T01:50:07;6.05;;;5.45;;
45206;SDS011;30950;53.086;21.576;2023-07-22T01:52:37;6.10;;;5.15;;
45206;SDS011;30950;53.086;21.576;2023-07-22T01:55:04;6.43;;;5.28;;
45206;SDS011;30950;53.086;21.576;2023-07-22T01:57:33;6.32;;;5.38;;
45206;SDS011;30950;53.086;21.576;2023-07-22T02:00:01;8.77;;;5.82;;
45206;SDS011;30950;53.086;21.576;2023-07-22T02:02:38;6.70;;;5.70;;
45206;SDS011;30950;53.086;21.576;2023-07-22T02:05:07;6.35;;;5.75;;
45206;SDS011;30950;53.086;21.576;2023-07-22T02:07:35;7.03;;;5.47;;
45206;SDS011;30950;53.086;21.576;2023-07-22T02:10:03;8.05;;;5.85;;
45206;SDS011;30950;53.086;21.576;2023-07-22T02:12:33;6.07;;;5.47;;
45206;SDS011;30950;53.086;21.576;2023-07-22T02:15:00;9.35;;;5.93;;
45206;SDS011;30950;53.086;21.576;2023-07-22T02:17:29;5.90;;;5.30;;
45206;SDS011;30950;53.086;21.576;2023-07-22T02:19:58;6.35;;;5.57;;
45206;SDS011;30950;53.086;21.576;2023-07-22T02:22:26;9.10;;;6.15;;
45206;SDS011;30950;53.086;21.576;2023-07-22T02:24:53;6.82;;;5.60;;
45206;SDS011;30950;53.086;21.576;2023-07-22T02:27:21;6.55;;;5.13;;
45206;SDS011;30950;53.086;21.576;2023-07-22T02:29:48;8.50;;;6.10;;
45206;SDS011;30950;53.086;21.576;2023-07-22T02:32:16;7.25;;;5.80;;
45206;SDS011;30950;53.086;21.576;2023-07-22T02:34:44;7.07;;;5.60;;
45206;SDS011;30950;53.086;21.576;2023-07-22T02:37:11;6.63;;;5.57;;
45206;SDS011;30950;53.086;21.576;2023-07-22T02:39:38;7.03;;;6.00;;
45206;SDS011;30950;53.086;21.576;2023-07-22T02:42:06;10.23;;;5.95;;
45206;SDS011;30950;53.086;21.576;2023-07-22T02:44:35;9.40;;;6.22;;
45206;SDS011;30950;53.086;21.576;2023-07-22T02:47:03;7.85;;;6.07;;
45206;SDS011;30950;53.086;21.576;2023-07-22T02:49:30;9.82;;;5.82;;
45206;SDS011;30950;53.086;21.576;2023-07-22T02:51:58;6.88;;;5.70;;
45206;SDS011;30950;53.086;21.576;2023-07-22T02:54:25;8.10;;;5.82;;
45206;SDS011;30950;53.086;21.576;2023-07-22T02:56:53;9.18;;;6.50;;
45206;SDS011;30950;53.086;21.576;2023-07-22T02:59:20;9.32;;;6.15;;
45206;SDS011;30950;53.086;21.576;2023-07-22T03:01:48;9.10;;;7.13;;
45206;SDS011;30950;53.086;21.576;2023-07-22T03:04:15;9.40;;;6.55;;
45206;SDS011;30950;53.086;21.576;2023-07-22T03:06:42;8.98;;;7.00;;
45206;SDS011;30950;53.086;21.576;2023-07-22T03:09:10;8.40;;;7.05;;
45206;SDS011;30950;53.086;21.576;2023-07-22T03:11:38;11.13;;;6.90;;
45206;SDS011;30950;53.086;21.576;2023-07-22T03:14:05;8.93;;;7.40;;
45206;SDS011;30950;53.086;21.576;2023-07-22T03:16:32;9.95;;;7.38;;
45206;SDS011;30950;53.086;21.576;2023-07-22T03:19:00;9.70;;;7.68;;
45206;SDS011;30950;53.086;21.576;2023-07-22T03:21:28;8.05;;;7.35;;
45206;SDS011;30950;53.086;21.576;2023-07-22T03:23:56;8.50;;;7.55;;
45206;SDS011;30950;53.086;21.576;2023-07-22T03:26:23;8.73;;;7.82;;
45206;SDS011;30950;53.086;21.576;2023-07-22T03:28:51;9.93;;;8.02;;
45206;SDS011;30950;53.086;21.576;2023-07-22T03:31:19;12.77;;;9.40;;
45206;SDS011;30950;53.086;21.576;2023-07-22T03:33:46;9.35;;;8.35;;
45206;SDS011;30950;53.086;21.576;2023-07-22T03:36:15;11.10;;;8.55;;
45206;SDS011;30950;53.086;21.576;2023-07-22T03:38:42;9.18;;;8.27;;
45206;SDS011;30950;53.086;21.576;2023-07-22T03:41:10;9.82;;;8.82;;
45206;SDS011;30950;53.086;21.576;2023-07-22T03:43:37;10.02;;;8.98;;
45206;SDS011;30950;53.086;21.576;2023-07-22T03:46:05;9.48;;;8.45;;
45206;SDS011;30950;53.086;21.576;2023-07-22T03:48:32;11.65;;;9.25;;
45206;SDS011;30950;53.086;21.576;2023-07-22T03:51:00;11.27;;;10.20;;
45206;SDS011;30950;53.086;21.576;2023-07-22T03:53:46;13.38;;;10.05;;
45206;SDS011;30950;53.086;21.576;2023-07-22T03:56:13;12.43;;;10.10;;
45206;SDS011;30950;53.086;21.576;2023-07-22T03:58:41;13.75;;;11.48;;
45206;SDS011;30950;53.086;21.576;2023-07-22T04:01:11;13.25;;;10.50;;
45206;SDS011;30950;53.086;21.576;2023-07-22T04:03:45;15.00;;;11.50;;
45206;SDS011;30950;53.086;21.576;2023-07-22T04:06:12;12.85;;;11.43;;
45206;SDS011;30950;53.086;21.576;2023-07-22T04:08:40;13.55;;;11.98;;
45206;SDS011;30950;53.086;21.576;2023-07-22T04:11:07;13.88;;;12.30;;
45206;SDS011;30950;53.086;21.576;2023-07-22T04:13:34;13.02;;;11.50;;
45206;SDS011;30950;53.086;21.576;2023-07-22T04:16:03;14.10;;;12.38;;
45206;SDS011;30950;53.086;21.576;2023-07-22T04:18:30;13.52;;;12.23;;
45206;SDS011;30950;53.086;21.576;2023-07-22T04:21:01;16.90;;;13.45;;
45206;SDS011;30950;53.086;21.576;2023-07-22T04:23:28;13.98;;;12.48;;
45206;SDS011;30950;53.086;21.576;2023-07-22T04:25:56;15.60;;;14.10;;
45206;SDS011;30950;53.086;21.576;2023-07-22T04:28:24;14.48;;;13.05;;
45206;SDS011;30950;53.086;21.576;2023-07-22T04:30:57;13.68;;;12.27;;
45206;SDS011;30950;53.086;21.576;2023-07-22T04:33:27;14.93;;;13.32;;
45206;SDS011;30950;53.086;21.576;2023-07-22T04:35:58;14.00;;;12.60;;
45206;SDS011;30950;53.086;21.576;2023-07-22T04:38:26;15.02;;;13.00;;
45206;SDS011;30950;53.086;21.576;2023-07-22T04:40:55;13.10;;;11.70;;
45206;SDS011;30950;53.086;21.576;2023-07-22T04:43:22;11.80;;;9.55;;
45206;SDS011;30950;53.086;21.576;2023-07-22T04:45:50;10.32;;;7.43;;
45206;SDS011;30950;53.086;21.576;2023-07-22T04:48:19;9.57;;;8.57;;
45206;SDS011;30950;53.086;21.576;2023-07-22T04:50:48;12.13;;;10.85;;
45206;SDS011;30950;53.086;21.576;2023-07-22T04:53:16;12.68;;;11.30;;
45206;SDS011;30950;53.086;21.576;2023-07-22T04:55:45;12.85;;;11.63;;
45206;SDS011;30950;53.086;21.576;2023-07-22T04:58:12;12.82;;;10.65;;
45206;SDS011;30950;53.086;21.576;2023-07-22T05:00:40;12.98;;;11.60;;
45206;SDS011;30950;53.086;21.576;2023-07-22T05:03:09;12.80;;;11.23;;
45206;SDS011;30950;53.086;21.576;2023-07-22T05:05:38;12.82;;;11.30;;
45206;SDS011;30950;53.086;21.576;2023-07-22T05:08:05;12.10;;;10.30;;
45206;SDS011;30950;53.086;21.576;2023-07-22T05:10:39;12.60;;;11.40;;
45206;SDS011;30950;53.086;21.576;2023-07-22T05:13:06;13.88;;;12.35;;
45206;SDS011;30950;53.086;21.576;2023-07-22T05:15:34;12.65;;;10.77;;
45206;SDS011;30950;53.086;21.576;2023-07-22T05:18:01;13.23;;;11.90;;
45206;SDS011;30950;53.086;21.576;2023-07-22T05:20:28;14.52;;;11.80;;
45206;SDS011;30950;53.086;21.576;2023-07-22T05:22:56;16.40;;;12.43;;
45206;SDS011;30950;53.086;21.576;2023-07-22T05:25:23;12.52;;;11.25;;
45206;SDS011;30950;53.086;21.576;2023-07-22T05:27:51;16.02;;;13.45;;
45206;SDS011;30950;53.086;21.576;2023-07-22T05:30:18;12.82;;;11.50;;
45206;SDS011;30950;53.086;21.576;2023-07-22T05:33:00;15.05;;;13.45;;
45206;SDS011;30950;53.086;21.576;2023-07-22T05:35:28;15.10;;;12.63;;
45206;SDS011;30950;53.086;21.576;2023-07-22T05:37:56;14.20;;;12.70;;
45206;SDS011;30950;53.086;21.576;2023-07-22T05:40:24;14.40;;;12.07;;
45206;SDS011;30950;53.086;21.576;2023-07-22T05:42:51;13.70;;;11.43;;
45206;SDS011;30950;53.086;21.576;2023-07-22T05:45:19;14.80;;;12.68;;
45206;SDS011;30950;53.086;21.576;2023-07-22T05:47:46;16.90;;;13.75;;
45206;SDS011;30950;53.086;21.576;2023-07-22T05:50:14;13.52;;;12.18;;
45206;SDS011;30950;53.086;21.576;2023-07-22T05:52:41;14.18;;;12.73;;
45206;SDS011;30950;53.086;21.576;2023-07-22T05:55:09;13.73;;;12.30;;
45206;SDS011;30950;53.086;21.576;2023-07-22T05:57:37;11.93;;;10.80;;
45206;SDS011;30950;53.086;21.576;2023-07-22T06:00:05;13.25;;;11.80;;
45206;SDS011;30950;53.086;21.576;2023-07-22T06:02:39;13.38;;;11.57;;
45206;SDS011;30950;53.086;21.576;2023-07-22T06:05:10;11.07;;;9.98;;
45206;SDS011;30950;53.086;21.576;2023-07-22T06:07:38;11.90;;;9.35;;
45206;SDS011;30950;53.086;21.576;2023-07-22T06:10:06;10.38;;;9.27;;
45206;SDS011;30950;53.086;21.576;2023-07-22T06:12:35;9.80;;;8.00;;
45206;SDS011;30950;53.086;21.576;2023-07-22T06:15:02;9.98;;;7.53;;
45206;SDS011;30950;53.086;21.576;2023-07-22T06:17:30;12.77;;;10.20;;
45206;SDS011;30950;53.086;21.576;2023-07-22T06:19:57;13.15;;;11.75;;
45206;SDS011;30950;53.086;21.576;2023-07-22T06:22:25;11.77;;;10.50;;
45206;SDS011;30950;53.086;21.576;2023-07-22T06:24:52;14.30;;;11.77;;
45206;SDS011;30950;53.086;21.576;2023-07-22T06:27:20;12.20;;;10.82;;
45206;SDS011;30950;53.086;21.576;2023-07-22T06:29:47;11.73;;;10.15;;
45206;SDS011;30950;53.086;21.576;2023-07-22T06:32:14;14.15;;;12.68;;
45206;SDS011;30950;53.086;21.576;2023-07-22T06:34:42;11.45;;;10.02;;
45206;SDS011;30950;53.086;21.576;2023-07-22T06:37:09;10.38;;;8.25;;
45206;SDS011;30950;53.086;21.576;2023-07-22T06:39:37;8.75;;;7.60;;
45206;SDS011;30950;53.086;21.576;2023-07-22T06:42:04;6.55;;;5.68;;
45206;SDS011;30950;53.086;21.576;2023-07-22T06:44:32;8.27;;;5.97;;
45206;SDS011;30950;53.086;21.576;2023-07-22T06:46:59;8.35;;;5.55;;
45206;SDS011;30950;53.086;21.576;2023-07-22T06:49:27;10.18;;;6.43;;
45206;SDS011;30950;53.086;21.576;2023-07-22T06:51:54;5.63;;;4.97;;
45206;SDS011;30950;53.086;21.576;2023-07-22T06:54:22;7.72;;;6.07;;
45206;SDS011;30950;53.086;21.576;2023-07-22T06:56:49;6.82;;;4.00;;
45206;SDS011;30950;53.086;21.576;2023-07-22T06:59:17;5.18;;;4.30;;
45206;SDS011;30950;53.086;21.576;2023-07-22T07:01:44;7.65;;;4.30;;
45206;SDS011;30950;53.086;21.576;2023-07-22T07:04:12;7.10;;;4.97;;
45206;SDS011;30950;53.086;21.576;2023-07-22T07:06:39;5.75;;;4.63;;
45206;SDS011;30950;53.086;21.576;2023-07-22T07:09:07;6.07;;;5.32;;
45206;SDS011;30950;53.086;21.576;2023-07-22T07:11:38;6.13;;;3.95;;
45206;SDS011;30950;53.086;21.576;2023-07-22T07:14:06;5.45;;;4.43;;
45206;SDS011;30950;53.086;21.576;2023-07-22T07:16:33;6.97;;;4.05;;
45206;SDS011;30950;53.086;21.576;2023-07-22T07:19:01;5.03;;;3.72;;
45206;SDS011;30950;53.086;21.576;2023-07-22T07:21:28;5.95;;;4.50;;
45206;SDS011;30950;53.086;21.576;2023-07-22T07:23:56;5.30;;;3.80;;
45206;SDS011;30950;53.086;21.576;2023-07-22T07:26:24;7.22;;;4.40;;
45206;SDS011;30950;53.086;21.576;2023-07-22T07:28:52;5.10;;;4.03;;
45206;SDS011;30950;53.086;21.576;2023-07-22T07:31:20;7.90;;;6.80;;
45206;SDS011;30950;53.086;21.576;2023-07-22T07:33:47;7.03;;;5.57;;
45206;SDS011;30950;53.086;21.576;2023-07-22T07:36:15;8.30;;;5.32;;
45206;SDS011;30950;53.086;21.576;2023-07-22T07:38:43;5.75;;;4.45;;
45206;SDS011;30950;53.086;21.576;2023-07-22T07:41:13;6.00;;;4.45;;
45206;SDS011;30950;53.086;21.576;2023-07-22T07:43:41;6.35;;;4.60;;
45206;SDS011;30950;53.086;21.576;2023-07-22T07:46:26;6.07;;;4.53;;
45206;SDS011;30950;53.086;21.576;2023-07-22T07:48:59;7.05;;;4.55;;
45206;SDS011;30950;53.086;21.576;2023-07-22T07:51:28;5.70;;;5.10;;
45206;SDS011;30950;53.086;21.576;2023-07-22T07:53:58;6.75;;;4.90;;
45206;SDS011;30950;53.086;21.576;2023-07-22T07:56:27;4.68;;;4.10;;
45206;SDS011;30950;53.086;21.576;2023-07-22T07:58:55;5.97;;;4.68;;
45206;SDS011;30950;53.086;21.576;2023-07-22T08:01:23;6.03;;;4.68;;
45206;SDS011;30950;53.086;21.576;2023-07-22T08:03:54;5.80;;;4.97;;
45206;SDS011;30950;53.086;21.576;2023-07-22T08:06:21;7.45;;;4.18;;
45206;SDS011;30950;53.086;21.576;2023-07-22T08:08:52;5.45;;;4.28;;
45206;SDS011;30950;53.086;21.576;2023-07-22T08:11:20;4.68;;;3.90;;
45206;SDS011;30950;53.086;21.576;2023-07-22T08:13:48;5.20;;;3.90;;
45206;SDS011;30950;53.086;21.576;2023-07-22T08:16:15;7.13;;;4.80;;
45206;SDS011;30950;53.086;21.576;2023-07-22T08:18:43;7.35;;;5.20;;
45206;SDS011;30950;53.086;21.576;2023-07-22T08:21:10;5.88;;;4.32;;
45206;SDS011;30950;53.086;21.576;2023-07-22T08:23:38;6.32;;;4.88;;
45206;SDS011;30950;53.086;21.576;2023-07-22T08:26:05;5.50;;;4.22;;
45206;SDS011;30950;53.086;21.576;2023-07-22T08:28:33;4.70;;;3.75;;
45206;SDS011;30950;53.086;21.576;2023-07-22T08:31:01;6.03;;;4.10;;
45206;SDS011;30950;53.086;21.576;2023-07-22T08:33:29;5.15;;;4.30;;
45206;SDS011;30950;53.086;21.576;2023-07-22T08:36:08;6.18;;;4.53;;
45206;SDS011;30950;53.086;21.576;2023-07-22T08:38:36;6.50;;;4.72;;
45206;SDS011;30950;53.086;21.576;2023-07-22T08:41:03;5.60;;;4.80;;
45206;SDS011;30950;53.086;21.576;2023-07-22T08:43:31;6.75;;;5.80;;
45206;SDS011;30950;53.086;21.576;2023-07-22T08:46:03;8.07;;;5.90;;
45206;SDS011;30950;53.086;21.576;2023-07-22T08:48:34;7.78;;;6.97;;
45206;SDS011;30950;53.086;21.576;2023-07-22T08:51:07;11.40;;;6.78;;
45206;SDS011;30950;53.086;21.576;2023-07-22T08:53:39;8.30;;;6.20;;
45206;SDS011;30950;53.086;21.576;2023-07-22T08:56:11;8.57;;;6.50;;
45206;SDS011;30950;53.086;21.576;2023-07-22T08:58:39;8.30;;;6.53;;
45206;SDS011;30950;53.086;21.576;2023-07-22T09:01:09;8.43;;;7.30;;
45206;SDS011;30950;53.086;21.576;2023-07-22T09:03:38;7.85;;;7.07;;
45206;SDS011;30950;53.086;21.576;2023-07-22T09:06:07;10.23;;;7.50;;
45206;SDS011;30950;53.086;21.576;2023-07-22T09:08:36;6.93;;;6.28;;
45206;SDS011;30950;53.086;21.576;2023-07-22T09:11:05;8.68;;;7.35;;
45206;SDS011;30950;53.086;21.576;2023-07-22T09:13:34;9.55;;;8.35;;
45206;SDS011;30950;53.086;21.576;2023-07-22T09:16:02;6.60;;;6.00;;
45206;SDS011;30950;53.086;21.576;2023-07-22T09:18:32;9.45;;;7.95;;
45206;SDS011;30950;53.086;21.576;2023-07-22T09:21:01;10.55;;;8.43;;
45206;SDS011;30950;53.086;21.576;2023-07-22T09:23:35;10.20;;;6.38;;
45206;SDS011;30950;53.086;21.576;2023-07-22T09:26:13;7.57;;;6.80;;
45206;SDS011;30950;53.086;21.576;2023-07-22T09:28:51;8.60;;;7.78;;
45206;SDS011;30950;53.086;21.576;2023-07-22T09:31:24;7.82;;;6.78;;
45206;SDS011;30950;53.086;21.576;2023-07-22T09:33:53;7.72;;;6.90;;
45206;SDS011;30950;53.086;21.576;2023-07-22T09:36:21;9.57;;;8.68;;
45206;SDS011;30950;53.086;21.576;2023-07-22T09:39:01;10.38;;;9.38;;
45206;SDS011;30950;53.086;21.576;2023-07-22T09:41:30;11.07;;;8.35;;
45206;SDS011;30950;53.086;21.576;2023-07-22T09:44:02;10.23;;;9.23;;
45206;SDS011;30950;53.086;21.576;2023-07-22T09:46:30;8.27;;;7.47;;
45206;SDS011;30950;53.086;21.576;2023-07-22T09:49:03;8.20;;;7.13;;
45206;SDS011;30950;53.086;21.576;2023-07-22T09:51:36;8.85;;;7.10;;
45206;SDS011;30950;53.086;21.576;2023-07-22T09:54:22;6.90;;;5.70;;
45206;SDS011;30950;53.086;21.576;2023-07-22T09:56:56;5.88;;;5.07;;
45206;SDS011;30950;53.086;21.576;2023-07-22T09:59:24;6.22;;;3.80;;
45206;SDS011;30950;53.086;21.576;2023-07-22T10:01:56;6.05;;;4.20;;
45206;SDS011;30950;53.086;21.576;2023-07-22T10:04:28;7.70;;;4.75;;
45206;SDS011;30950;53.086;21.576;2023-07-22T10:07:01;6.00;;;4.00;;
45206;SDS011;30950;53.086;21.576;2023-07-22T10:09:32;5.82;;;3.90;;
45206;SDS011;30950;53.086;21.576;2023-07-22T10:12:04;4.97;;;3.50;;
45206;SDS011;30950;53.086;21.576;2023-07-22T10:14:33;5.20;;;3.45;;
45206;SDS011;30950;53.086;21.576;2023-07-22T10:17:04;5.65;;;3.30;;
45206;SDS011;30950;53.086;21.576;2023-07-22T10:19:33;4.30;;;3.05;;
45206;SDS011;30950;53.086;21.576;2023-07-22T10:22:01;5.32;;;3.67;;
45206;SDS011;30950;53.086;21.576;2023-07-22T10:24:30;4.82;;;3.95;;
45206;SDS011;30950;53.086;21.576;2023-07-22T10:27:00;6.47;;;3.80;;
45206;SDS011;30950;53.086;21.576;2023-07-22T10:29:28;5.20;;;3.58;;
45206;SDS011;30950;53.086;21.576;2023-07-22T10:31:55;5.22;;;3.83;;
45206;SDS011;30950;53.086;21.576;2023-07-22T10:34:23;4.63;;;3.45;;
45206;SDS011;30950;53.086;21.576;2023-07-22T10:36:51;6.65;;;3.60;;
45206;SDS011;30950;53.086;21.576;2023-07-22T10:39:26;4.78;;;3.70;;
45206;SDS011;30950;53.086;21.576;2023-07-22T10:42:01;4.78;;;3.78;;
45206;SDS011;30950;53.086;21.576;2023-07-22T10:44:36;5.35;;;3.70;;
45206;SDS011;30950;53.086;21.576;2023-07-22T10:47:04;5.22;;;3.10;;
45206;SDS011;30950;53.086;21.576;2023-07-22T10:49:44;6.47;;;3.10;;
45206;SDS011;30950;53.086;21.576;2023-07-22T10:52:14;5.15;;;2.90;;
45206;SDS011;30950;53.086;21.576;2023-07-22T10:55:02;6.53;;;3.20;;
45206;SDS011;30950;53.086;21.576;2023-07-22T10:57:29;5.00;;;3.35;;
45206;SDS011;30950;53.086;21.576;2023-07-22T10:59:57;4.78;;;2.92;;
45206;SDS011;30950;53.086;21.576;2023-07-22T11:04:55;4.28;;;3.08;;
45206;SDS011;30950;53.086;21.576;2023-07-22T11:07:32;6.28;;;3.03;;
45206;SDS011;30950;53.086;21.576;2023-07-22T11:10:19;6.15;;;3.00;;
45206;SDS011;30950;53.086;21.576;2023-07-22T11:12:47;6.25;;;4.75;;
45206;SDS011;30950;53.086;21.576;2023-07-22T11:15:15;4.90;;;2.80;;
45206;SDS011;30950;53.086;21.576;2023-07-22T11:17:44;5.53;;;2.38;;
45206;SDS011;30950;53.086;21.576;2023-07-22T11:20:12;4.20;;;2.92;;
45206;SDS011;30950;53.086;21.576;2023-07-22T11:22:40;6.25;;;3.03;;
45206;SDS011;30950;53.086;21.576;2023-07-22T11:25:08;4.47;;;3.17;;
45206;SDS011;30950;53.086;21.576;2023-07-22T11:27:36;2.83;;;2.30;;
45206;SDS011;30950;53.086;21.576;2023-07-22T11:30:03;3.65;;;2.38;;
45206;SDS011;30950;53.086;21.576;2023-07-22T11:32:31;3.92;;;2.30;;
45206;SDS011;30950;53.086;21.576;2023-07-22T11:34:59;3.30;;;2.17;;
45206;SDS011;30950;53.086;21.576;2023-07-22T11:37:27;7.47;;;3.05;;
45206;SDS011;30950;53.086;21.576;2023-07-22T11:39:59;3.65;;;2.20;;
45206;SDS011;30950;53.086;21.576;2023-07-22T11:42:28;4.35;;;2.40;;
45206;SDS011;30950;53.086;21.576;2023-07-22T11:44:56;3.20;;;2.00;;
45206;SDS011;30950;53.086;21.576;2023-07-22T11:47:28;3.33;;;2.10;;
45206;SDS011;30950;53.086;21.576;2023-07-22T11:49:57;4.40;;;2.58;;
45206;SDS011;30950;53.086;21.576;2023-07-22T11:52:25;3.20;;;2.38;;
45206;SDS011;30950;53.086;21.576;2023-07-22T11:54:53;3.55;;;2.63;;
45206;SDS011;30950;53.086;21.576;2023-07-22T11:57:20;4.00;;;2.55;;
45206;SDS011;30950;53.086;21.576;2023-07-22T11:59:50;2.70;;;2.22;;
45206;SDS011;30950;53.086;21.576;2023-07-22T12:02:23;3.10;;;2.13;;
45206;SDS011;30950;53.086;21.576;2023-07-22T12:07:23;5.32;;;2.33;;
45206;SDS011;30950;53.086;21.576;2023-07-22T12:09:52;3.30;;;2.30;;
45206;SDS011;30950;53.086;21.576;2023-07-22T12:12:30;4.47;;;2.50;;
45206;SDS011;30950;53.086;21.576;2023-07-22T12:15:19;3.45;;;2.30;;
45206;SDS011;30950;53.086;21.576;2023-07-22T12:20:25;3.25;;;2.20;;
45206;SDS011;30950;53.086;21.576;2023-07-22T12:22:54;3.47;;;2.30;;
45206;SDS011;30950;53.086;21.576;2023-07-22T12:25:23;4.10;;;2.53;;
45206;SDS011;30950;53.086;21.576;2023-07-22T12:27:50;4.55;;;2.13;;
45206;SDS011;30950;53.086;21.576;2023-07-22T12:30:18;4.20;;;2.28;;
45206;SDS011;30950;53.086;21.576;2023-07-22T12:32:46;3.50;;;2.40;;
45206;SDS011;30950;53.086;21.576;2023-07-22T12:35:15;3.30;;;2.40;;
45206;SDS011;30950;53.086;21.576;2023-07-22T12:37:43;3.53;;;2.33;;
45206;SDS011;30950;53.086;21.576;2023-07-22T12:40:10;4.00;;;3.00;;
45206;SDS011;30950;53.086;21.576;2023-07-22T12:42:39;4.63;;;2.53;;
45206;SDS011;30950;53.086;21.576;2023-07-22T12:45:08;3.25;;;2.13;;
45206;SDS011;30950;53.086;21.576;2023-07-22T12:47:36;2.92;;;2.08;;
45206;SDS011;30950;53.086;21.576;2023-07-22T12:50:05;4.68;;;2.30;;
45206;SDS011;30950;53.086;21.576;2023-07-22T12:52:36;5.70;;;2.53;;
45206;SDS011;30950;53.086;21.576;2023-07-22T12:55:04;4.22;;;2.10;;
45206;SDS011;30950;53.086;21.576;2023-07-22T12:57:32;3.45;;;2.08;;
45206;SDS011;30950;53.086;21.576;2023-07-22T13:00:00;3.13;;;2.50;;
45206;SDS011;30950;53.086;21.576;2023-07-22T13:02:27;4.38;;;2.38;;
45206;SDS011;30950;53.086;21.576;2023-07-22T13:04:55;3.25;;;2.38;;
45206;SDS011;30950;53.086;21.576;2023-07-22T13:07:22;3.78;;;2.13;;
45206;SDS011;30950;53.086;21.576;2023-07-22T13:09:50;2.92;;;2.08;;
45206;SDS011;30950;53.086;21.576;2023-07-22T13:12:19;3.13;;;2.22;;
45206;SDS011;30950;53.086;21.576;2023-07-22T13:14:47;3.13;;;2.22;;
45206;SDS011;30950;53.086;21.576;2023-07-22T13:17:14;5.00;;;2.00;;
45206;SDS011;30950;53.086;21.576;2023-07-22T13:19:42;4.35;;;2.35;;
45206;SDS011;30950;53.086;21.576;2023-07-22T13:22:09;3.20;;;2.17;;
45206;SDS011;30950;53.086;21.576;2023-07-22T13:24:37;3.08;;;2.10;;
45206;SDS011;30950;53.086;21.576;2023-07-22T13:27:04;4.15;;;2.30;;
45206;SDS011;30950;53.086;21.576;2023-07-22T13:29:33;5.90;;;2.38;;
45206;SDS011;30950;53.086;21.576;2023-07-22T13:32:00;2.85;;;2.30;;
45206;SDS011;30950;53.086;21.576;2023-07-22T13:34:28;4.22;;;2.28;;
45206;SDS011;30950;53.086;21.576;2023-07-22T13:36:57;5.20;;;2.58;;
45206;SDS011;30950;53.086;21.576;2023-07-22T13:39:25;9.48;;;6.45;;
45206;SDS011;30950;53.086;21.576;2023-07-22T13:41:52;13.98;;;9.35;;
45206;SDS011;30950;53.086;21.576;2023-07-22T13:44:20;4.93;;;3.17;;
45206;SDS011;30950;53.086;21.576;2023-07-22T13:46:47;4.53;;;2.90;;
45206;SDS011;30950;53.086;21.576;2023-07-22T13:49:15;4.22;;;3.13;;
45206;SDS011;30950;53.086;21.576;2023-07-22T13:51:42;3.78;;;2.40;;
45206;SDS011;30950;53.086;21.576;2023-07-22T13:54:10;3.72;;;2.25;;
45206;SDS011;30950;53.086;21.576;2023-07-22T13:56:38;4.72;;;2.47;;
45206;SDS011;30950;53.086;21.576;2023-07-22T13:59:06;3.47;;;2.30;;
45206;SDS011;30950;53.086;21.576;2023-07-22T14:01:34;3.42;;;2.60;;
45206;SDS011;30950;53.086;21.576;2023-07-22T14:04:02;4.70;;;2.20;;
45206;SDS011;30950;53.086;21.576;2023-07-22T14:06:29;4.32;;;2.22;;
45206;SDS011;30950;53.086;21.576;2023-07-22T14:09:00;3.75;;;2.15;;
45206;SDS011;30950;53.086;21.576;2023-07-22T14:11:28;5.20;;;3.22;;
45206;SDS011;30950;53.086;21.576;2023-07-22T14:13:56;3.45;;;2.33;;
45206;SDS011;30950;53.086;21.576;2023-07-22T14:16:23;3.90;;;2.17;;
45206;SDS011;30950;53.086;21.576;2023-07-22T14:18:51;2.40;;;2.00;;
45206;SDS011;30950;53.086;21.576;2023-07-22T14:21:19;10.95;;;2.90;;
45206;SDS011;30950;53.086;21.576;2023-07-22T14:23:48;3.35;;;2.30;;
45206;SDS011;30950;53.086;21.576;2023-07-22T14:26:15;3.88;;;2.83;;
45206;SDS011;30950;53.086;21.576;2023-07-22T14:28:43;2.95;;;2.13;;
45206;SDS011;30950;53.086;21.576;2023-07-22T14:31:10;3.25;;;2.47;;
45206;SDS011;30950;53.086;21.576;2023-07-22T14:33:38;3.40;;;2.50;;
45206;SDS011;30950;53.086;21.576;2023-07-22T14:36:07;3.72;;;2.13;;
45206;SDS011;30950;53.086;21.576;2023-07-22T14:38:35;3.60;;;2.40;;
45206;SDS011;30950;53.086;21.576;2023-07-22T14:41:02;3.85;;;2.50;;
45206;SDS011;30950;53.086;21.576;2023-07-22T14:43:30;3.83;;;2.40;;
45206;SDS011;30950;53.086;21.576;2023-07-22T14:45:57;5.88;;;2.33;;